sensor_id;sensor_type;location;lat;lon;timestamp;P1;durP1;ratioP1;P2;durP2;ratioP2
3971;SDS011;2000;47.572;14.202;2022-07-29T00:00:00;5.57;;;2.90;;
3971;SDS011;2000;47.572;14.202;2022-07-29T00:02:27;5.97;;;3.00;;
3971;SDS011;2000;47.572;14.202;2022-07-29T00:04:54;3.40;;;2.87;;
3971;SDS011;2000;47.572;14.202;2022-07-29T00:07:21;2.90;;;2.60;;
3971;SDS011;2000;47.572;14.202;2022-07-29T00:09:47;3.20;;;2.80;;
3971;SDS011;2000;47.572;14.202;2022-07-29T00:12:18;2.70;;;2.50;;
3971;SDS011;2000;47.572;14.202;2022-07-29T00:14:52;3.37;;;3.03;;
3971;SDS011;2000;47.572;14.202;2022-07-29T00:17:20;3.90;;;2.63;;
3971;SDS011;2000;47.572;14.202;2022-07-29T00:19:47;3.30;;;2.47;;
3971;SDS011;2000;47.572;14.202;2022-07-29T00:22:14;4.10;;;2.20;;
3971;SDS011;2000;47.572;14.202;2022-07-29T00:24:41;2.43;;;2.23;;
3971;SDS011;2000;47.572;14.202;2022-07-29T00:27:08;6.47;;;2.93;;
3971;SDS011;2000;47.572;14.202;2022-07-29T00:29:35;3.00;;;2.70;;
3971;SDS011;2000;47.572;14.202;2022-07-29T00:32:02;3.33;;;2.93;;
3971;SDS011;2000;47.572;14.202;2022-07-29T00:34:29;2.63;;;2.43;;
3971;SDS011;2000;47.572;14.202;2022-07-29T00:37:14;4.50;;;2.67;;
3971;SDS011;2000;47.572;14.202;2022-07-29T00:39:41;4.10;;;2.53;;
3971;SDS011;2000;47.572;14.202;2022-07-29T00:42:07;2.60;;;2.40;;
3971;SDS011;2000;47.572;14.202;2022-07-29T00:44:36;5.43;;;2.73;;
3971;SDS011;2000;47.572;14.202;2022-07-29T00:47:04;3.37;;;2.80;;
3971;SDS011;2000;47.572;14.202;2022-07-29T00:49:31;5.57;;;2.60;;
3971;SDS011;2000;47.572;14.202;2022-07-29T00:52:00;2.57;;;2.33;;
3971;SDS011;2000;47.572;14.202;2022-07-29T00:54:28;2.73;;;2.53;;
3971;SDS011;2000;47.572;14.202;2022-07-29T00:56:58;7.43;;;2.60;;
3971;SDS011;2000;47.572;14.202;2022-07-29T00:59:26;3.17;;;2.60;;
3971;SDS011;2000;47.572;14.202;2022-07-29T01:02:00;2.87;;;2.60;;
3971;SDS011;2000;47.572;14.202;2022-07-29T01:04:27;5.93;;;2.40;;
3971;SDS011;2000;47.572;14.202;2022-07-29T01:06:55;4.00;;;2.60;;
3971;SDS011;2000;47.572;14.202;2022-07-29T01:09:22;3.97;;;2.53;;
3971;SDS011;2000;47.572;14.202;2022-07-29T01:12:10;5.47;;;3.00;;
3971;SDS011;2000;47.572;14.202;2022-07-29T01:14:37;6.40;;;3.57;;
3971;SDS011;2000;47.572;14.202;2022-07-29T01:17:26;4.57;;;2.50;;
3971;SDS011;2000;47.572;14.202;2022-07-29T01:20:37;4.70;;;3.43;;
3971;SDS011;2000;47.572;14.202;2022-07-29T01:29:16;5.27;;;3.20;;
3971;SDS011;2000;47.572;14.202;2022-07-29T01:32:05;5.20;;;2.83;;
3971;SDS011;2000;47.572;14.202;2022-07-29T01:37:50;3.90;;;2.93;;
3971;SDS011;2000;47.572;14.202;2022-07-29T01:40:23;4.00;;;3.47;;
3971;SDS011;2000;47.572;14.202;2022-07-29T01:43:03;3.13;;;2.73;;
3971;SDS011;2000;47.572;14.202;2022-07-29T01:48:21;4.80;;;3.30;;
3971;SDS011;2000;47.572;14.202;2022-07-29T01:51:04;3.03;;;2.30;;
3971;SDS011;2000;47.572;14.202;2022-07-29T01:53:37;3.30;;;2.93;;
3971;SDS011;2000;47.572;14.202;2022-07-29T01:56:08;9.83;;;2.80;;
3971;SDS011;2000;47.572;14.202;2022-07-29T01:58:37;5.90;;;2.70;;
3971;SDS011;2000;47.572;14.202;2022-07-29T02:01:05;2.57;;;2.37;;
3971;SDS011;2000;47.572;14.202;2022-07-29T02:03:35;2.80;;;2.43;;
3971;SDS011;2000;47.572;14.202;2022-07-29T02:06:03;3.13;;;2.80;;
3971;SDS011;2000;47.572;14.202;2022-07-29T02:08:31;4.63;;;3.10;;
3971;SDS011;2000;47.572;14.202;2022-07-29T02:10:59;4.70;;;2.53;;
3971;SDS011;2000;47.572;14.202;2022-07-29T02:13:27;5.30;;;3.10;;
3971;SDS011;2000;47.572;14.202;2022-07-29T02:15:55;3.10;;;2.90;;
3971;SDS011;2000;47.572;14.202;2022-07-29T02:18:24;4.47;;;3.00;;
3971;SDS011;2000;47.572;14.202;2022-07-29T02:20:52;8.10;;;3.60;;
3971;SDS011;2000;47.572;14.202;2022-07-29T02:23:21;3.83;;;3.27;;
3971;SDS011;2000;47.572;14.202;2022-07-29T02:25:50;5.93;;;2.77;;
3971;SDS011;2000;47.572;14.202;2022-07-29T02:28:18;6.27;;;3.37;;
3971;SDS011;2000;47.572;14.202;2022-07-29T02:30:46;3.60;;;3.17;;
3971;SDS011;2000;47.572;14.202;2022-07-29T02:33:15;10.90;;;3.80;;
3971;SDS011;2000;47.572;14.202;2022-07-29T02:35:43;7.53;;;3.33;;
3971;SDS011;2000;47.572;14.202;2022-07-29T02:38:13;3.93;;;3.20;;
3971;SDS011;2000;47.572;14.202;2022-07-29T02:41:08;5.37;;;3.60;;
3971;SDS011;2000;47.572;14.202;2022-07-29T02:43:38;7.97;;;2.90;;
3971;SDS011;2000;47.572;14.202;2022-07-29T02:46:06;5.20;;;3.20;;
3971;SDS011;2000;47.572;14.202;2022-07-29T02:49:15;2.90;;;2.70;;
3971;SDS011;2000;47.572;14.202;2022-07-29T02:51:46;10.63;;;3.00;;
3971;SDS011;2000;47.572;14.202;2022-07-29T02:54:29;3.23;;;2.93;;
3971;SDS011;2000;47.572;14.202;2022-07-29T02:57:02;3.90;;;3.50;;
3971;SDS011;2000;47.572;14.202;2022-07-29T02:59:33;2.77;;;2.53;;
3971;SDS011;2000;47.572;14.202;2022-07-29T03:02:01;4.40;;;2.90;;
3971;SDS011;2000;47.572;14.202;2022-07-29T03:04:28;5.00;;;2.90;;
3971;SDS011;2000;47.572;14.202;2022-07-29T03:06:58;11.57;;;2.80;;
3971;SDS011;2000;47.572;14.202;2022-07-29T03:09:25;9.03;;;3.07;;
3971;SDS011;2000;47.572;14.202;2022-07-29T03:11:53;13.97;;;3.57;;
3971;SDS011;2000;47.572;14.202;2022-07-29T03:14:21;5.10;;;2.70;;
3971;SDS011;2000;47.572;14.202;2022-07-29T03:16:49;3.00;;;2.70;;
3971;SDS011;2000;47.572;14.202;2022-07-29T03:19:17;6.20;;;3.40;;
3971;SDS011;2000;47.572;14.202;2022-07-29T03:21:44;4.37;;;2.87;;
3971;SDS011;2000;47.572;14.202;2022-07-29T03:24:23;4.70;;;3.30;;
3971;SDS011;2000;47.572;14.202;2022-07-29T03:27:00;2.93;;;2.73;;
3971;SDS011;2000;47.572;14.202;2022-07-29T03:29:27;12.53;;;2.80;;
3971;SDS011;2000;47.572;14.202;2022-07-29T03:31:59;4.57;;;3.40;;
3971;SDS011;2000;47.572;14.202;2022-07-29T03:34:27;3.23;;;2.50;;
3971;SDS011;2000;47.572;14.202;2022-07-29T03:36:54;11.83;;;2.90;;
3971;SDS011;2000;47.572;14.202;2022-07-29T03:39:22;4.03;;;2.30;;
3971;SDS011;2000;47.572;14.202;2022-07-29T03:41:52;7.03;;;4.10;;
3971;SDS011;2000;47.572;14.202;2022-07-29T03:44:20;6.57;;;2.93;;
3971;SDS011;2000;47.572;14.202;2022-07-29T03:46:47;2.83;;;2.63;;
3971;SDS011;2000;47.572;14.202;2022-07-29T03:49:15;3.60;;;3.17;;
3971;SDS011;2000;47.572;14.202;2022-07-29T03:51:43;4.80;;;3.40;;
3971;SDS011;2000;47.572;14.202;2022-07-29T03:54:10;14.47;;;3.23;;
3971;SDS011;2000;47.572;14.202;2022-07-29T03:56:38;5.03;;;3.07;;
3971;SDS011;2000;47.572;14.202;2022-07-29T03:59:06;6.07;;;3.27;;
3971;SDS011;2000;47.572;14.202;2022-07-29T04:01:33;5.10;;;2.70;;
3971;SDS011;2000;47.572;14.202;2022-07-29T04:04:01;4.23;;;3.30;;
3971;SDS011;2000;47.572;14.202;2022-07-29T04:06:28;3.73;;;3.03;;
3971;SDS011;2000;47.572;14.202;2022-07-29T04:08:55;5.57;;;3.60;;
3971;SDS011;2000;47.572;14.202;2022-07-29T04:11:21;7.20;;;4.47;;
3971;SDS011;2000;47.572;14.202;2022-07-29T04:13:48;5.53;;;3.70;;
3971;SDS011;2000;47.572;14.202;2022-07-29T04:16:15;3.43;;;3.17;;
3971;SDS011;2000;47.572;14.202;2022-07-29T04:18:42;3.80;;;3.20;;
3971;SDS011;2000;47.572;14.202;2022-07-29T04:21:08;4.30;;;3.53;;
3971;SDS011;2000;47.572;14.202;2022-07-29T04:23:35;5.30;;;3.87;;
3971;SDS011;2000;47.572;14.202;2022-07-29T04:26:18;4.80;;;3.70;;
3971;SDS011;2000;47.572;14.202;2022-07-29T04:28:46;10.43;;;4.03;;
3971;SDS011;2000;47.572;14.202;2022-07-29T04:31:12;7.50;;;3.83;;
3971;SDS011;2000;47.572;14.202;2022-07-29T04:33:40;14.50;;;4.00;;
3971;SDS011;2000;47.572;14.202;2022-07-29T04:36:06;6.50;;;4.00;;
3971;SDS011;2000;47.572;14.202;2022-07-29T04:38:53;4.30;;;3.90;;
3971;SDS011;2000;47.572;14.202;2022-07-29T04:41:20;4.77;;;3.20;;
3971;SDS011;2000;47.572;14.202;2022-07-29T04:43:47;4.80;;;3.80;;
3971;SDS011;2000;47.572;14.202;2022-07-29T04:46:13;6.30;;;5.70;;
3971;SDS011;2000;47.572;14.202;2022-07-29T04:48:40;4.93;;;4.40;;
3971;SDS011;2000;47.572;14.202;2022-07-29T04:51:07;5.03;;;4.00;;
3971;SDS011;2000;47.572;14.202;2022-07-29T04:53:34;6.13;;;3.87;;
3971;SDS011;2000;47.572;14.202;2022-07-29T04:56:01;6.60;;;3.90;;
3971;SDS011;2000;47.572;14.202;2022-07-29T04:58:28;7.87;;;3.63;;
3971;SDS011;2000;47.572;14.202;2022-07-29T05:00:55;4.23;;;3.83;;
3971;SDS011;2000;47.572;14.202;2022-07-29T05:03:22;4.13;;;3.60;;
3971;SDS011;2000;47.572;14.202;2022-07-29T05:05:48;3.90;;;3.53;;
3971;SDS011;2000;47.572;14.202;2022-07-29T05:08:15;6.70;;;3.20;;
3971;SDS011;2000;47.572;14.202;2022-07-29T05:10:42;9.83;;;3.20;;
3971;SDS011;2000;47.572;14.202;2022-07-29T05:13:09;3.03;;;2.80;;
3971;SDS011;2000;47.572;14.202;2022-07-29T05:15:36;4.33;;;2.83;;
3971;SDS011;2000;47.572;14.202;2022-07-29T05:18:03;5.63;;;2.90;;
3971;SDS011;2000;47.572;14.202;2022-07-29T05:20:30;4.60;;;4.07;;
3971;SDS011;2000;47.572;14.202;2022-07-29T05:22:58;5.00;;;4.60;;
3971;SDS011;2000;47.572;14.202;2022-07-29T05:25:25;7.53;;;4.93;;
3971;SDS011;2000;47.572;14.202;2022-07-29T05:28:09;6.20;;;4.70;;
3971;SDS011;2000;47.572;14.202;2022-07-29T05:30:37;5.50;;;4.73;;
3971;SDS011;2000;47.572;14.202;2022-07-29T05:33:04;4.13;;;3.83;;
3971;SDS011;2000;47.572;14.202;2022-07-29T05:35:31;4.80;;;4.20;;
3971;SDS011;2000;47.572;14.202;2022-07-29T05:37:57;5.70;;;4.37;;
3971;SDS011;2000;47.572;14.202;2022-07-29T05:40:24;5.03;;;4.30;;
3971;SDS011;2000;47.572;14.202;2022-07-29T05:42:51;4.70;;;4.10;;
3971;SDS011;2000;47.572;14.202;2022-07-29T05:45:18;7.77;;;4.73;;
3971;SDS011;2000;47.572;14.202;2022-07-29T05:47:45;6.43;;;4.57;;
3971;SDS011;2000;47.572;14.202;2022-07-29T05:50:12;7.37;;;4.30;;
3971;SDS011;2000;47.572;14.202;2022-07-29T05:52:39;3.60;;;3.30;;
3971;SDS011;2000;47.572;14.202;2022-07-29T05:55:06;3.97;;;3.67;;
3971;SDS011;2000;47.572;14.202;2022-07-29T05:57:33;5.20;;;3.50;;
3971;SDS011;2000;47.572;14.202;2022-07-29T06:00:00;5.23;;;3.63;;
3971;SDS011;2000;47.572;14.202;2022-07-29T06:02:26;4.40;;;3.80;;
3971;SDS011;2000;47.572;14.202;2022-07-29T06:04:53;4.57;;;4.00;;
3971;SDS011;2000;47.572;14.202;2022-07-29T06:07:20;7.00;;;3.43;;
3971;SDS011;2000;47.572;14.202;2022-07-29T06:09:47;6.60;;;4.33;;
3971;SDS011;2000;47.572;14.202;2022-07-29T06:12:14;3.40;;;3.10;;
3971;SDS011;2000;47.572;14.202;2022-07-29T06:14:41;10.60;;;3.50;;
3971;SDS011;2000;47.572;14.202;2022-07-29T06:17:08;6.40;;;4.10;;
3971;SDS011;2000;47.572;14.202;2022-07-29T06:19:34;4.97;;;4.10;;
3971;SDS011;2000;47.572;14.202;2022-07-29T06:22:03;5.40;;;4.57;;
3971;SDS011;2000;47.572;14.202;2022-07-29T06:24:30;5.73;;;4.27;;
3971;SDS011;2000;47.572;14.202;2022-07-29T06:26:57;9.63;;;4.57;;
3971;SDS011;2000;47.572;14.202;2022-07-29T06:29:24;5.37;;;3.87;;
3971;SDS011;2000;47.572;14.202;2022-07-29T06:31:51;5.50;;;4.10;;
3971;SDS011;2000;47.572;14.202;2022-07-29T06:34:17;4.53;;;4.13;;
3971;SDS011;2000;47.572;14.202;2022-07-29T06:36:46;5.50;;;3.53;;
3971;SDS011;2000;47.572;14.202;2022-07-29T06:39:13;3.93;;;3.53;;
3971;SDS011;2000;47.572;14.202;2022-07-29T06:41:41;12.23;;;4.00;;
3971;SDS011;2000;47.572;14.202;2022-07-29T06:44:07;4.90;;;3.67;;
3971;SDS011;2000;47.572;14.202;2022-07-29T06:46:35;6.40;;;3.57;;
3971;SDS011;2000;47.572;14.202;2022-07-29T06:49:03;3.40;;;3.10;;
3971;SDS011;2000;47.572;14.202;2022-07-29T06:51:30;4.87;;;3.73;;
3971;SDS011;2000;47.572;14.202;2022-07-29T06:53:57;5.13;;;3.83;;
3971;SDS011;2000;47.572;14.202;2022-07-29T06:56:30;8.00;;;3.37;;
3971;SDS011;2000;47.572;14.202;2022-07-29T06:59:05;5.53;;;2.90;;
3971;SDS011;2000;47.572;14.202;2022-07-29T07:01:33;4.87;;;3.50;;
3971;SDS011;2000;47.572;14.202;2022-07-29T07:04:00;3.90;;;3.00;;
3971;SDS011;2000;47.572;14.202;2022-07-29T07:06:27;7.30;;;4.10;;
3971;SDS011;2000;47.572;14.202;2022-07-29T07:08:54;7.43;;;4.10;;
3971;SDS011;2000;47.572;14.202;2022-07-29T07:11:21;3.57;;;3.27;;
3971;SDS011;2000;47.572;14.202;2022-07-29T07:13:48;6.10;;;3.93;;
3971;SDS011;2000;47.572;14.202;2022-07-29T07:16:14;10.03;;;3.47;;
3971;SDS011;2000;47.572;14.202;2022-07-29T07:18:42;8.23;;;3.53;;
3971;SDS011;2000;47.572;14.202;2022-07-29T07:21:11;5.30;;;3.53;;
3971;SDS011;2000;47.572;14.202;2022-07-29T07:23:44;4.73;;;3.47;;
3971;SDS011;2000;47.572;14.202;2022-07-29T07:26:11;3.47;;;3.17;;
3971;SDS011;2000;47.572;14.202;2022-07-29T07:28:38;12.63;;;3.37;;
3971;SDS011;2000;47.572;14.202;2022-07-29T07:31:05;3.73;;;3.07;;
3971;SDS011;2000;47.572;14.202;2022-07-29T07:33:32;4.70;;;3.23;;
3971;SDS011;2000;47.572;14.202;2022-07-29T07:35:59;5.90;;;3.30;;
3971;SDS011;2000;47.572;14.202;2022-07-29T07:38:26;8.23;;;3.20;;
3971;SDS011;2000;47.572;14.202;2022-07-29T07:40:52;3.10;;;2.80;;
3971;SDS011;2000;47.572;14.202;2022-07-29T07:43:19;3.83;;;3.43;;
3971;SDS011;2000;47.572;14.202;2022-07-29T07:45:46;5.23;;;3.33;;
3971;SDS011;2000;47.572;14.202;2022-07-29T07:48:13;3.80;;;3.10;;
3971;SDS011;2000;47.572;14.202;2022-07-29T07:50:40;5.33;;;2.90;;
3971;SDS011;2000;47.572;14.202;2022-07-29T07:53:07;5.40;;;3.90;;
3971;SDS011;2000;47.572;14.202;2022-07-29T07:55:38;3.77;;;3.20;;
3971;SDS011;2000;47.572;14.202;2022-07-29T07:58:26;4.10;;;3.13;;
3971;SDS011;2000;47.572;14.202;2022-07-29T08:00:53;8.93;;;6.00;;
3971;SDS011;2000;47.572;14.202;2022-07-29T08:03:20;3.47;;;3.17;;
3971;SDS011;2000;47.572;14.202;2022-07-29T08:05:47;4.43;;;3.13;;
3971;SDS011;2000;47.572;14.202;2022-07-29T08:08:14;23.43;;;3.30;;
3971;SDS011;2000;47.572;14.202;2022-07-29T08:10:41;2.77;;;2.57;;
3971;SDS011;2000;47.572;14.202;2022-07-29T08:13:23;2.93;;;2.30;;
3971;SDS011;2000;47.572;14.202;2022-07-29T08:15:53;3.47;;;2.53;;
3971;SDS011;2000;47.572;14.202;2022-07-29T08:18:24;5.00;;;2.97;;
3971;SDS011;2000;47.572;14.202;2022-07-29T08:20:52;3.40;;;2.83;;
3971;SDS011;2000;47.572;14.202;2022-07-29T08:23:19;4.90;;;3.03;;
3971;SDS011;2000;47.572;14.202;2022-07-29T08:25:46;4.10;;;3.37;;
3971;SDS011;2000;47.572;14.202;2022-07-29T08:28:15;3.33;;;3.03;;
3971;SDS011;2000;47.572;14.202;2022-07-29T08:30:43;5.30;;;3.30;;
3971;SDS011;2000;47.572;14.202;2022-07-29T08:33:10;5.80;;;2.83;;
3971;SDS011;2000;47.572;14.202;2022-07-29T08:35:38;2.67;;;2.40;;
3971;SDS011;2000;47.572;14.202;2022-07-29T08:38:05;5.23;;;2.83;;
3971;SDS011;2000;47.572;14.202;2022-07-29T08:40:32;4.93;;;2.70;;
3971;SDS011;2000;47.572;14.202;2022-07-29T08:43:03;11.30;;;3.27;;
3971;SDS011;2000;47.572;14.202;2022-07-29T08:45:38;3.83;;;2.53;;
3971;SDS011;2000;47.572;14.202;2022-07-29T08:48:14;5.60;;;2.83;;
3971;SDS011;2000;47.572;14.202;2022-07-29T08:50:42;2.87;;;2.63;;
3971;SDS011;2000;47.572;14.202;2022-07-29T08:53:13;6.30;;;3.33;;
3971;SDS011;2000;47.572;14.202;2022-07-29T08:55:45;2.97;;;2.70;;
3971;SDS011;2000;47.572;14.202;2022-07-29T08:58:14;6.57;;;3.17;;
3971;SDS011;2000;47.572;14.202;2022-07-29T09:00:43;9.30;;;2.97;;
3971;SDS011;2000;47.572;14.202;2022-07-29T09:03:15;3.13;;;2.93;;
3971;SDS011;2000;47.572;14.202;2022-07-29T09:05:45;6.10;;;2.77;;
3971;SDS011;2000;47.572;14.202;2022-07-29T09:08:14;3.33;;;2.83;;
3971;SDS011;2000;47.572;14.202;2022-07-29T09:10:42;5.60;;;4.07;;
3971;SDS011;2000;47.572;14.202;2022-07-29T09:13:09;9.70;;;2.27;;
3971;SDS011;2000;47.572;14.202;2022-07-29T09:15:36;2.57;;;2.37;;
3971;SDS011;2000;47.572;14.202;2022-07-29T09:18:03;2.90;;;2.70;;
3971;SDS011;2000;47.572;14.202;2022-07-29T09:20:30;4.87;;;2.33;;
3971;SDS011;2000;47.572;14.202;2022-07-29T09:23:16;4.03;;;2.50;;
3971;SDS011;2000;47.572;14.202;2022-07-29T09:25:49;2.83;;;2.50;;
3971;SDS011;2000;47.572;14.202;2022-07-29T09:28:17;3.90;;;2.73;;
3971;SDS011;2000;47.572;14.202;2022-07-29T09:30:58;7.87;;;2.50;;
3971;SDS011;2000;47.572;14.202;2022-07-29T09:33:31;2.23;;;2.13;;
3971;SDS011;2000;47.572;14.202;2022-07-29T09:36:04;2.90;;;2.70;;
3971;SDS011;2000;47.572;14.202;2022-07-29T09:38:32;2.60;;;2.40;;
3971;SDS011;2000;47.572;14.202;2022-07-29T09:41:00;2.70;;;2.50;;
3971;SDS011;2000;47.572;14.202;2022-07-29T09:43:31;3.37;;;3.07;;
3971;SDS011;2000;47.572;14.202;2022-07-29T09:46:11;3.87;;;2.40;;
3971;SDS011;2000;47.572;14.202;2022-07-29T09:48:38;4.90;;;3.03;;
3971;SDS011;2000;47.572;14.202;2022-07-29T09:51:05;3.53;;;3.20;;
3971;SDS011;2000;47.572;14.202;2022-07-29T09:53:47;4.33;;;3.17;;
3971;SDS011;2000;47.572;14.202;2022-07-29T09:56:14;5.37;;;2.90;;
3971;SDS011;2000;47.572;14.202;2022-07-29T09:58:41;6.67;;;2.30;;
3971;SDS011;2000;47.572;14.202;2022-07-29T10:01:08;6.80;;;2.90;;
3971;SDS011;2000;47.572;14.202;2022-07-29T10:06:31;4.00;;;2.93;;
3971;SDS011;2000;47.572;14.202;2022-07-29T10:09:10;11.20;;;2.77;;
3971;SDS011;2000;47.572;14.202;2022-07-29T10:11:37;2.70;;;2.50;;
3971;SDS011;2000;47.572;14.202;2022-07-29T10:14:15;2.90;;;2.07;;
3971;SDS011;2000;47.572;14.202;2022-07-29T10:16:42;4.23;;;3.10;;
3971;SDS011;2000;47.572;14.202;2022-07-29T10:19:09;3.47;;;3.17;;
3971;SDS011;2000;47.572;14.202;2022-07-29T10:21:35;4.90;;;2.70;;
3971;SDS011;2000;47.572;14.202;2022-07-29T10:24:04;5.80;;;3.37;;
3971;SDS011;2000;47.572;14.202;2022-07-29T10:26:31;2.97;;;2.77;;
3971;SDS011;2000;47.572;14.202;2022-07-29T10:28:58;3.57;;;2.73;;
3971;SDS011;2000;47.572;14.202;2022-07-29T10:31:29;3.30;;;3.00;;
3971;SDS011;2000;47.572;14.202;2022-07-29T10:34:13;4.10;;;2.50;;
3971;SDS011;2000;47.572;14.202;2022-07-29T10:36:52;5.27;;;3.00;;
3971;SDS011;2000;47.572;14.202;2022-07-29T10:39:33;3.70;;;2.37;;
3971;SDS011;2000;47.572;14.202;2022-07-29T10:42:18;2.17;;;2.07;;
3971;SDS011;2000;47.572;14.202;2022-07-29T10:44:59;2.37;;;2.17;;
3971;SDS011;2000;47.572;14.202;2022-07-29T10:47:26;5.27;;;2.60;;
3971;SDS011;2000;47.572;14.202;2022-07-29T10:49:57;3.87;;;2.10;;
3971;SDS011;2000;47.572;14.202;2022-07-29T11:00:57;4.00;;;2.50;;
3971;SDS011;2000;47.572;14.202;2022-07-29T11:03:43;5.23;;;2.90;;
3971;SDS011;2000;47.572;14.202;2022-07-29T11:06:18;3.40;;;2.70;;
3971;SDS011;2000;47.572;14.202;2022-07-29T11:12:03;5.90;;;2.60;;
3971;SDS011;2000;47.572;14.202;2022-07-29T11:17:19;4.10;;;3.70;;
3971;SDS011;2000;47.572;14.202;2022-07-29T11:19:46;5.60;;;2.87;;
3971;SDS011;2000;47.572;14.202;2022-07-29T11:22:33;6.43;;;3.30;;
3971;SDS011;2000;47.572;14.202;2022-07-29T11:25:14;3.40;;;3.10;;
3971;SDS011;2000;47.572;14.202;2022-07-29T11:27:42;4.70;;;3.77;;
3971;SDS011;2000;47.572;14.202;2022-07-29T11:30:11;3.30;;;2.80;;
3971;SDS011;2000;47.572;14.202;2022-07-29T11:32:40;3.47;;;3.27;;
3971;SDS011;2000;47.572;14.202;2022-07-29T11:35:17;4.43;;;3.07;;
3971;SDS011;2000;47.572;14.202;2022-07-29T11:43:53;7.80;;;3.40;;
3971;SDS011;2000;47.572;14.202;2022-07-29T11:49:09;5.23;;;3.20;;
3971;SDS011;2000;47.572;14.202;2022-07-29T11:51:40;7.57;;;3.43;;
3971;SDS011;2000;47.572;14.202;2022-07-29T11:54:13;5.23;;;3.17;;
3971;SDS011;2000;47.572;14.202;2022-07-29T11:56:52;5.10;;;2.80;;
3971;SDS011;2000;47.572;14.202;2022-07-29T11:59:19;4.47;;;3.23;;
3971;SDS011;2000;47.572;14.202;2022-07-29T12:01:53;7.10;;;3.90;;
3971;SDS011;2000;47.572;14.202;2022-07-29T12:04:51;4.00;;;3.60;;
3971;SDS011;2000;47.572;14.202;2022-07-29T12:07:29;5.17;;;3.63;;
3971;SDS011;2000;47.572;14.202;2022-07-29T12:10:00;5.93;;;2.90;;
3971;SDS011;2000;47.572;14.202;2022-07-29T12:12:28;3.93;;;3.60;;
3971;SDS011;2000;47.572;14.202;2022-07-29T12:14:55;4.10;;;3.40;;
3971;SDS011;2000;47.572;14.202;2022-07-29T12:17:31;3.47;;;3.17;;
3971;SDS011;2000;47.572;14.202;2022-07-29T12:20:00;5.10;;;3.50;;
3971;SDS011;2000;47.572;14.202;2022-07-29T12:22:30;8.97;;;4.17;;
3971;SDS011;2000;47.572;14.202;2022-07-29T12:25:08;3.40;;;3.10;;
3971;SDS011;2000;47.572;14.202;2022-07-29T12:28:02;4.37;;;3.87;;
3971;SDS011;2000;47.572;14.202;2022-07-29T12:30:36;4.47;;;4.03;;
3971;SDS011;2000;47.572;14.202;2022-07-29T12:33:13;3.93;;;3.63;;
3971;SDS011;2000;47.572;14.202;2022-07-29T12:35:42;5.00;;;3.90;;
3971;SDS011;2000;47.572;14.202;2022-07-29T12:38:19;5.67;;;3.70;;
3971;SDS011;2000;47.572;14.202;2022-07-29T12:40:47;4.87;;;4.27;;
3971;SDS011;2000;47.572;14.202;2022-07-29T12:43:16;4.20;;;3.90;;
3971;SDS011;2000;47.572;14.202;2022-07-29T12:45:45;7.00;;;3.73;;
3971;SDS011;2000;47.572;14.202;2022-07-29T12:48:15;7.00;;;3.87;;
3971;SDS011;2000;47.572;14.202;2022-07-29T12:50:52;6.33;;;4.60;;
3971;SDS011;2000;47.572;14.202;2022-07-29T12:53:20;5.63;;;5.07;;
3971;SDS011;2000;47.572;14.202;2022-07-29T12:55:48;6.13;;;4.20;;
3971;SDS011;2000;47.572;14.202;2022-07-29T12:58:37;4.53;;;4.13;;
3971;SDS011;2000;47.572;14.202;2022-07-29T13:01:12;4.37;;;4.00;;
3971;SDS011;2000;47.572;14.202;2022-07-29T13:03:45;5.57;;;4.97;;
3971;SDS011;2000;47.572;14.202;2022-07-29T13:09:19;5.00;;;4.50;;
3971;SDS011;2000;47.572;14.202;2022-07-29T13:11:50;5.47;;;4.97;;
3971;SDS011;2000;47.572;14.202;2022-07-29T13:14:31;5.10;;;4.70;;
3971;SDS011;2000;47.572;14.202;2022-07-29T13:17:08;4.67;;;4.27;;
3971;SDS011;2000;47.572;14.202;2022-07-29T13:19:43;4.13;;;3.83;;
3971;SDS011;2000;47.572;14.202;2022-07-29T13:22:13;4.00;;;3.60;;
3971;SDS011;2000;47.572;14.202;2022-07-29T13:24:57;4.10;;;3.80;;
3971;SDS011;2000;47.572;14.202;2022-07-29T13:27:26;5.33;;;4.70;;
3971;SDS011;2000;47.572;14.202;2022-07-29T13:29:54;4.30;;;3.90;;
3971;SDS011;2000;47.572;14.202;2022-07-29T13:32:23;4.43;;;4.03;;
3971;SDS011;2000;47.572;14.202;2022-07-29T13:34:57;3.73;;;3.40;;
3971;SDS011;2000;47.572;14.202;2022-07-29T13:37:30;3.73;;;3.43;;
3971;SDS011;2000;47.572;14.202;2022-07-29T13:40:01;4.87;;;4.33;;
3971;SDS011;2000;47.572;14.202;2022-07-29T13:42:29;4.33;;;3.70;;
3971;SDS011;2000;47.572;14.202;2022-07-29T13:44:58;5.10;;;4.60;;
3971;SDS011;2000;47.572;14.202;2022-07-29T13:47:25;4.60;;;4.20;;
3971;SDS011;2000;47.572;14.202;2022-07-29T13:49:58;6.20;;;3.80;;
3971;SDS011;2000;47.572;14.202;2022-07-29T13:52:26;3.80;;;3.40;;
3971;SDS011;2000;47.572;14.202;2022-07-29T13:54:53;9.50;;;4.10;;
3971;SDS011;2000;47.572;14.202;2022-07-29T13:57:20;3.57;;;3.27;;
3971;SDS011;2000;47.572;14.202;2022-07-29T13:59:47;4.77;;;4.20;;
3971;SDS011;2000;47.572;14.202;2022-07-29T14:02:19;4.00;;;3.70;;
3971;SDS011;2000;47.572;14.202;2022-07-29T14:04:50;4.50;;;3.27;;
3971;SDS011;2000;47.572;14.202;2022-07-29T14:07:17;3.10;;;2.90;;
3971;SDS011;2000;47.572;14.202;2022-07-29T14:09:44;3.97;;;3.20;;
3971;SDS011;2000;47.572;14.202;2022-07-29T14:12:11;4.77;;;3.03;;
3971;SDS011;2000;47.572;14.202;2022-07-29T14:14:38;5.63;;;4.70;;
3971;SDS011;2000;47.572;14.202;2022-07-29T14:17:05;15.47;;;5.20;;
3971;SDS011;2000;47.572;14.202;2022-07-29T14:19:33;5.10;;;4.57;;
3971;SDS011;2000;47.572;14.202;2022-07-29T14:22:05;5.20;;;4.70;;
3971;SDS011;2000;47.572;14.202;2022-07-29T14:24:34;4.17;;;3.40;;
3971;SDS011;2000;47.572;14.202;2022-07-29T14:27:02;5.20;;;3.70;;
3971;SDS011;2000;47.572;14.202;2022-07-29T14:29:30;2.70;;;2.30;;
3971;SDS011;2000;47.572;14.202;2022-07-29T14:32:07;3.20;;;2.90;;
3971;SDS011;2000;47.572;14.202;2022-07-29T14:34:36;3.20;;;2.60;;
3971;SDS011;2000;47.572;14.202;2022-07-29T14:37:03;3.17;;;2.93;;
3971;SDS011;2000;47.572;14.202;2022-07-29T14:39:32;4.43;;;3.10;;
3971;SDS011;2000;47.572;14.202;2022-07-29T14:42:04;4.40;;;2.90;;
3971;SDS011;2000;47.572;14.202;2022-07-29T14:44:31;3.20;;;2.63;;
3971;SDS011;2000;47.572;14.202;2022-07-29T14:46:58;2.00;;;1.90;;
3971;SDS011;2000;47.572;14.202;2022-07-29T14:49:33;3.47;;;2.80;;
3971;SDS011;2000;47.572;14.202;2022-07-29T14:52:00;3.03;;;2.83;;
3971;SDS011;2000;47.572;14.202;2022-07-29T14:54:27;2.63;;;2.43;;
3971;SDS011;2000;47.572;14.202;2022-07-29T14:56:54;2.37;;;2.17;;
3971;SDS011;2000;47.572;14.202;2022-07-29T14:59:24;7.20;;;2.40;;
3971;SDS011;2000;47.572;14.202;2022-07-29T15:01:51;6.33;;;2.53;;
3971;SDS011;2000;47.572;14.202;2022-07-29T15:04:18;4.27;;;3.00;;
3971;SDS011;2000;47.572;14.202;2022-07-29T15:06:45;2.13;;;1.93;;
3971;SDS011;2000;47.572;14.202;2022-07-29T15:09:12;4.70;;;1.60;;
3971;SDS011;2000;47.572;14.202;2022-07-29T15:11:39;2.03;;;1.83;;
3971;SDS011;2000;47.572;14.202;2022-07-29T15:14:06;2.00;;;1.80;;
3971;SDS011;2000;47.572;14.202;2022-07-29T15:16:35;2.03;;;1.93;;
3971;SDS011;2000;47.572;14.202;2022-07-29T15:19:02;2.70;;;2.50;;
3971;SDS011;2000;47.572;14.202;2022-07-29T15:21:30;2.93;;;2.30;;
3971;SDS011;2000;47.572;14.202;2022-07-29T15:23:57;2.60;;;1.80;;
3971;SDS011;2000;47.572;14.202;2022-07-29T15:26:24;2.33;;;1.93;;
3971;SDS011;2000;47.572;14.202;2022-07-29T15:28:51;2.00;;;1.90;;
3971;SDS011;2000;47.572;14.202;2022-07-29T15:31:18;2.83;;;2.63;;
3971;SDS011;2000;47.572;14.202;2022-07-29T15:33:47;3.70;;;2.57;;
3971;SDS011;2000;47.572;14.202;2022-07-29T15:36:14;2.90;;;2.70;;
3971;SDS011;2000;47.572;14.202;2022-07-29T15:39:01;2.87;;;2.60;;
3971;SDS011;2000;47.572;14.202;2022-07-29T15:41:28;4.17;;;3.30;;
3971;SDS011;2000;47.572;14.202;2022-07-29T15:43:54;5.17;;;2.70;;
3971;SDS011;2000;47.572;14.202;2022-07-29T15:46:21;1.83;;;1.73;;
3971;SDS011;2000;47.572;14.202;2022-07-29T15:49:07;3.60;;;2.40;;
3971;SDS011;2000;47.572;14.202;2022-07-29T15:51:34;3.07;;;2.50;;
3971;SDS011;2000;47.572;14.202;2022-07-29T15:54:02;8.00;;;2.03;;
3971;SDS011;2000;47.572;14.202;2022-07-29T15:56:29;2.80;;;2.60;;
3971;SDS011;2000;47.572;14.202;2022-07-29T15:58:57;2.37;;;2.17;;